< < Back
Terminal Aerodrome Forecast


Current Version              Previous Versions:   1  2  3  4  5  6  7  8  9  

Terminal Aerodrome Forecast

760
FTUS42 KTAE 121733
TAFDHN
TAF
KDHN 121733Z 1218/1318 25014G22KT P6SM SCT025
      TEMPO 1218/1220 BKN025
     FM130000 33008KT P6SM SKC
     FM131500 36010G16KT P6SM SKC=



Latest METAR

358
SAUS70 KWBC 131700 RRH
MTRDHN
METAR KDHN 131653Z 35011G22KT 10SM CLR 10/M11 A3043 RMK AO2 SLP303
T01001111


USA.gov is the U.S. government's official web portal to all federal, state and local government web resources and services.